Time;durP1;ratioP1;P1;durP2;ratioP2;P2;SDS_P1;SDS_P2;PMS_P1;PMS_P2;Temp;Humidity;BMP_temperature;BMP_pressure;BME280_temperature;BME280_humidity;BME280_pressure;Samples;Min_cycle;Max_cycle;Signal;HPM_P1;HPM_P2
2021/10/30 00:02:18;;;;;;;84.10;36.70;;;;;;;3.16;87.45;100698.50;1620331;88;21188;-71
2021/10/30 00:04:51;;;;;;;75.55;35.28;;;;;;;3.20;87.42;100701.03;1623037;87;21577;-71
2021/10/30 00:07:24;;;;;;;68.90;33.45;;;;;;;3.20;87.29;100697.78;1618474;88;20910;-70
2021/10/30 00:09:54;;;;;;;82.42;34.30;;;;;;;3.21;87.09;100699.97;1618126;88;20964;-70
2021/10/30 00:12:24;;;;;;;69.27;32.73;;;;;;;3.20;87.31;100699.14;1598205;88;20956;-70
2021/10/30 00:14:54;;;;;;;77.58;33.00;;;;;;;3.19;87.74;100700.20;1618218;88;21258;-70
2021/10/30 00:17:29;;;;;;;70.40;33.42;;;;;;;3.19;88.14;100700.20;1599565;88;20991;-70
2021/10/30 00:19:57;;;;;;;78.25;35.03;;;;;;;3.19;88.14;100700.20;1618730;88;20910;-71
2021/10/30 00:22:29;;;;;;;69.97;32.98;;;;;;;3.20;88.62;100701.03;1623079;88;20907;-70
2021/10/30 00:25:06;;;;;;;73.55;32.58;;;;;;;3.24;89.64;100704.38;1623515;88;20963;-70
2021/10/30 00:27:37;;;;;;;73.47;32.17;;;;;;;3.35;89.86;100695.09;1586976;88;21166;-70
2021/10/30 00:30:09;;;;;;;74.82;35.13;;;;;;;3.35;89.86;100695.09;1630316;88;20963;-70
2021/10/30 00:32:39;;;;;;;67.37;30.72;;;;;;;3.38;90.36;100698.69;1608706;88;20939;-70
2021/10/30 00:35:17;;;;;;;67.05;31.37;;;;;;;3.38;90.53;100692.73;1630329;86;20879;-70
2021/10/30 00:37:51;;;;;;;69.12;30.62;;;;;;;3.42;91.46;100695.78;1608596;87;20999;-70
2021/10/30 00:40:18;;;;;;;71.15;32.08;;;;;;;3.47;92.52;100695.86;1629993;87;21498;-70
2021/10/30 00:42:46;;;;;;;70.12;31.87;;;;;;;3.56;93.30;100693.88;1630212;86;20907;-70
2021/10/30 00:45:15;;;;;;;64.90;30.65;;;;;;;3.56;93.30;100693.88;1630419;86;20912;-70
2021/10/30 00:47:47;;;;;;;69.20;31.35;;;;;;;3.57;92.72;100691.45;1588327;88;21642;-70
2021/10/30 00:50:17;;;;;;;61.70;29.90;;;;;;;3.56;92.43;100697.13;1629819;87;21036;-70
2021/10/30 00:52:51;;;;;;;58.92;30.55;;;;;;;3.55;91.93;100694.13;1629596;88;21138;-70
2021/10/30 00:55:25;;;;;;;62.70;28.23;;;;;;;3.51;91.40;100693.78;1629756;88;20947;-71
2021/10/30 00:57:57;;;;;;;55.23;26.80;;;;;;;3.46;90.80;100696.95;1588273;88;20920;-71
2021/10/30 01:00:36;;;;;;;62.45;28.25;;;;;;;3.36;90.21;100696.22;1607853;88;21439;-71
2021/10/30 01:03:06;;;;;;;58.33;29.50;;;;;;;3.11;89.21;100696.50;1630062;86;21432;-70
2021/10/30 01:05:34;;;;;;;62.75;28.57;;;;;;;3.11;89.21;100696.50;1629784;87;21210;-71
2021/10/30 01:08:01;;;;;;;62.43;28.17;;;;;;;3.01;88.99;100701.70;1629853;87;20873;-71
2021/10/30 01:10:34;;;;;;;59.58;29.15;;;;;;;2.92;89.08;100701.77;1629770;87;21562;-71
2021/10/30 01:13:01;;;;;;;54.77;26.68;;;;;;;2.86;88.82;100700.86;1629556;87;20961;-70
2021/10/30 01:15:30;;;;;;;58.25;27.52;;;;;;;2.78;88.63;100703.93;1629510;88;20965;-70
2021/10/30 01:18:02;;;;;;;63.28;26.87;;;;;;;2.67;88.56;100699.33;1607847;88;20912;-71
2021/10/30 01:20:32;;;;;;;59.05;27.65;;;;;;;2.59;88.52;100697.80;1607840;88;21005;-70
2021/10/30 01:23:02;;;;;;;54.58;26.45;;;;;;;2.51;88.37;100709.52;1629538;87;21000;-71
2021/10/30 01:25:34;;;;;;;63.55;29.45;;;;;;;2.44;88.45;100707.45;1629686;88;20949;-71
2021/10/30 01:28:08;;;;;;;56.18;26.97;;;;;;;2.36;88.37;100706.43;1629617;86;21455;-72
2021/10/30 01:30:38;;;;;;;63.45;27.73;;;;;;;2.27;88.33;100702.73;1629509;87;21444;-72
2021/10/30 01:33:12;;;;;;;68.42;29.02;;;;;;;2.19;88.42;100702.25;1629604;86;21447;-71
2021/10/30 01:35:46;;;;;;;71.25;29.87;;;;;;;2.11;88.30;100703.94;1629672;87;20956;-71
2021/10/30 01:38:18;;;;;;;60.07;29.13;;;;;;;2.02;88.48;100703.97;1629807;86;21646;-71
2021/10/30 01:40:56;;;;;;;62.65;29.42;;;;;;;1.95;88.72;100701.36;1625901;87;20956;-71
2021/10/30 01:43:27;;;;;;;66.75;30.00;;;;;;;1.90;88.89;100699.34;1624894;88;21106;-70
2021/10/30 01:46:05;;;;;;;60.80;28.73;;;;;;;1.86;88.86;100700.03;1608937;86;20868;-71
2021/10/30 01:48:44;;;;;;;65.85;30.88;;;;;;;1.82;89.00;100703.73;1609391;88;21648;-71
2021/10/30 01:51:15;;;;;;;55.63;26.82;;;;;;;1.78;89.05;100697.65;1628771;87;20965;-70
2021/10/30 01:53:44;;;;;;;53.80;26.77;;;;;;;1.71;89.00;100699.13;1629787;87;20944;-73
2021/10/30 01:56:15;;;;;;;54.55;28.25;;;;;;;1.66;88.98;100703.05;1629548;88;21431;-72
2021/10/30 01:58:49;;;;;;;55.48;26.65;;;;;;;1.61;89.07;100698.32;1607660;88;21012;-72
2021/10/30 02:01:19;;;;;;;51.25;25.80;;;;;;;1.58;89.07;100702.83;1607711;88;21566;-72
2021/10/30 02:03:53;;;;;;;50.43;24.37;;;;;;;1.53;88.98;100701.87;1629916;88;21504;-73
2021/10/30 02:06:25;;;;;;;45.17;24.67;;;;;;;1.47;89.02;100698.19;1629586;88;20880;-72
2021/10/30 02:09:02;;;;;;;54.10;24.90;;;;;;;1.41;89.08;100700.45;1607923;88;21107;-71
2021/10/30 02:11:36;;;;;;;49.40;23.50;;;;;;;1.38;89.19;100699.55;1629489;88;21723;-71
2021/10/30 02:14:11;;;;;;;42.17;21.93;;;;;;;1.36;89.20;100703.02;1630030;87;20921;-71
2021/10/30 02:16:46;;;;;;;45.55;24.05;;;;;;;1.33;89.23;100704.82;1607971;88;21495;-70
2021/10/30 02:19:15;;;;;;;47.95;23.85;;;;;;;1.29;89.18;100699.03;1629625;86;20912;-70
2021/10/30 02:21:44;;;;;;;50.25;23.85;;;;;;;1.27;89.31;100697.08;1629699;87;21185;-70
2021/10/30 02:24:11;;;;;;;41.85;23.05;;;;;;;1.27;89.37;100701.14;1630227;88;20900;-71
2021/10/30 02:26:46;;;;;;;47.25;23.45;;;;;;;1.28;89.47;100699.27;1630532;88;20947;-70
2021/10/30 02:29:15;;;;;;;42.43;22.40;;;;;;;1.27;89.63;100697.08;1623579;87;20952;-71
2021/10/30 02:31:42;;;;;;;42.95;21.57;;;;;;;1.30;89.80;100703.39;1623472;88;20944;-71
2021/10/30 02:34:14;;;;;;;42.17;21.62;;;;;;;1.31;89.94;100702.34;1623494;88;21181;-71
2021/10/30 02:36:42;;;;;;;49.95;22.65;;;;;;;1.34;90.05;100701.06;1622480;88;20960;-72
2021/10/30 02:39:17;;;;;;;41.63;22.05;;;;;;;1.39;90.92;100711.20;1623487;88;20916;-71
2021/10/30 02:41:48;;;;;;;45.17;21.33;;;;;;;1.47;91.52;100711.72;1623404;88;20920;-72
2021/10/30 02:44:17;;;;;;;48.38;23.45;;;;;;;1.55;92.09;100715.47;1623274;88;21499;-71
2021/10/30 02:46:43;;;;;;;52.43;24.12;;;;;;;1.63;92.50;100714.33;1623328;87;21168;-71
2021/10/30 02:49:10;;;;;;;41.83;20.82;;;;;;;1.72;93.01;100717.02;1623402;88;20940;-71
2021/10/30 02:51:37;;;;;;;51.73;22.62;;;;;;;1.83;94.84;100712.67;1623555;88;20992;-71
2021/10/30 02:54:04;;;;;;;36.90;19.57;;;;;;;1.96;96.05;100717.38;1621909;88;22255;-71
2021/10/30 02:56:30;;;;;;;92.57;24.85;;;;;;;2.11;97.28;100722.90;1621675;88;20972;-71
2021/10/30 02:58:57;;;;;;;57.35;23.92;;;;;;;2.20;98.18;100726.93;1623381;88;21190;-72
2021/10/30 03:01:24;;;;;;;46.28;21.02;;;;;;;2.27;98.89;100719.00;1623273;88;20952;-71
2021/10/30 03:03:52;;;;;;;44.38;20.10;;;;;;;2.34;99.68;100721.57;1623392;88;20947;-72
2021/10/30 03:06:25;;;;;;;48.30;19.30;;;;;;;2.41;100.00;100726.36;1623406;88;20924;-72
2021/10/30 03:08:49;;;;;;;68.28;22.85;;;;;;;2.45;100.00;100719.94;1623011;88;21570;-71
2021/10/30 03:11:17;;;;;;;48.55;20.50;;;;;;;2.49;100.00;100726.02;1623382;88;21226;-72
2021/10/30 03:13:47;;;;;;;41.55;20.72;;;;;;;2.51;100.00;100725.78;1623347;88;20956;-71
2021/10/30 03:16:13;;;;;;;38.90;18.85;;;;;;;2.54;100.00;100718.53;1623560;88;21451;-71
2021/10/30 03:18:39;;;;;;;35.83;19.32;;;;;;;2.56;100.00;100724.55;1623398;88;21534;-71
2021/10/30 03:21:07;;;;;;;32.17;19.25;;;;;;;2.59;100.00;100721.37;1623529;88;21012;-72
2021/10/30 03:23:35;;;;;;;51.05;19.80;;;;;;;2.61;100.00;100723.31;1623080;88;21097;-71
2021/10/30 03:26:02;;;;;;;40.67;20.48;;;;;;;2.63;100.00;100726.09;1620399;88;20940;-71
2021/10/30 03:28:30;;;;;;;43.25;17.05;;;;;;;2.66;100.00;100728.86;1627147;86;21458;-71
2021/10/30 03:30:57;;;;;;;40.73;17.35;;;;;;;2.67;100.00;100720.20;1630283;88;20991;-71
2021/10/30 03:33:23;;;;;;;56.50;22.50;;;;;;;2.69;100.00;100724.33;1630396;87;20912;-70
2021/10/30 03:35:50;;;;;;;50.92;21.02;;;;;;;2.70;100.00;100725.98;1630370;88;21223;-70
2021/10/30 03:38:16;;;;;;;53.17;21.73;;;;;;;2.73;100.00;100718.73;1630340;88;20986;-71
2021/10/30 03:40:46;;;;;;;57.00;21.07;;;;;;;2.77;100.00;100721.80;1630391;88;20872;-71
2021/10/30 03:43:13;;;;;;;37.10;17.27;;;;;;;2.80;100.00;100724.86;1630295;88;20955;-70
2021/10/30 03:45:40;;;;;;;43.28;19.65;;;;;;;2.80;100.00;100718.08;1630424;88;20958;-70
2021/10/30 03:48:08;;;;;;;55.15;20.95;;;;;;;2.75;100.00;100722.03;1630261;86;21172;-71
2021/10/30 03:50:37;;;;;;;36.23;17.52;;;;;;;2.69;100.00;100722.14;1630281;87;20944;-70
2021/10/30 03:53:05;;;;;;;35.45;16.85;;;;;;;2.62;100.00;100727.15;1630256;88;20951;-71
2021/10/30 03:55:33;;;;;;;37.38;17.50;;;;;;;2.59;100.00;100724.91;1609220;87;20980;-71
2021/10/30 03:58:01;;;;;;;32.40;17.00;;;;;;;2.56;100.00;100726.73;1630291;88;20948;-71
2021/10/30 04:00:28;;;;;;;27.30;16.25;;;;;;;2.55;100.00;100733.73;1630623;86;21499;-72
2021/10/30 04:02:55;;;;;;;30.95;16.30;;;;;;;2.54;100.00;100733.45;1638245;86;20916;-71
2021/10/30 04:05:23;;;;;;;24.72;16.23;;;;;;;2.54;100.00;100731.56;1645768;86;20952;-71
2021/10/30 04:07:50;;;;;;;30.50;15.95;;;;;;;2.54;100.00;100727.50;1629541;88;20889;-72
2021/10/30 04:10:17;;;;;;;36.95;17.50;;;;;;;2.52;100.00;100720.12;1630011;86;21176;-72
2021/10/30 04:12:46;;;;;;;25.90;16.50;;;;;;;2.53;100.00;100723.66;1635384;85;21014;-73
2021/10/30 04:15:13;;;;;;;31.05;16.65;;;;;;;2.53;100.00;100725.02;1635338;87;20983;-73
2021/10/30 04:17:39;;;;;;;36.13;18.57;;;;;;;2.52;100.00;100718.77;1635312;87;20974;-72
2021/10/30 04:20:09;;;;;;;35.28;15.75;;;;;;;2.53;100.00;100723.66;1635319;87;20991;-73
2021/10/30 04:22:35;;;;;;;34.98;16.80;;;;;;;2.56;100.00;100724.55;1635393;86;20992;-73
2021/10/30 04:25:04;;;;;;;27.93;16.32;;;;;;;2.58;100.00;100728.67;1635444;87;21179;-74
2021/10/30 04:27:32;;;;;;;28.85;16.82;;;;;;;2.61;100.00;100721.96;1635184;87;20964;-74
2021/10/30 04:29:58;;;;;;;33.00;17.80;;;;;;;2.63;100.00;100727.97;1635396;87;20963;-72
2021/10/30 04:32:27;;;;;;;27.37;18.15;;;;;;;2.63;100.00;100735.58;1635113;85;21055;-73
2021/10/30 04:35:05;;;;;;;28.70;17.60;;;;;;;2.63;100.00;100729.33;1635434;87;20872;-72
2021/10/30 04:37:27;;;;;;;28.60;16.55;;;;;;;2.64;100.00;100738.59;1635346;87;21526;-73
2021/10/30 04:39:54;;;;;;;29.50;16.75;;;;;;;2.68;100.00;100736.76;1635368;87;20920;-73
2021/10/30 04:42:24;;;;;;;26.68;16.57;;;;;;;2.69;100.00;100735.70;1635461;87;20959;-74
2021/10/30 04:44:58;;;;;;;;;;;;;;;2.71;100.00;100732.22;1636834;87;21039;-73
2021/10/30 04:47:31;;;;;;;38.25;17.85;;;;;;;2.74;100.00;100731.76;1635590;86;20100;-74
2021/10/30 04:49:59;;;;;;;35.43;19.20;;;;;;;2.78;100.00;100737.00;1633293;87;21211;-73
2021/10/30 04:52:32;;;;;;;43.40;19.37;;;;;;;2.80;100.00;100733.00;1629281;88;20996;-72
2021/10/30 04:55:05;;;;;;;32.13;17.82;;;;;;;2.82;100.00;100732.23;1629803;86;20916;-71
2021/10/30 04:57:33;;;;;;;28.25;18.37;;;;;;;2.85;100.00;100726.87;1630561;87;21454;-71
2021/10/30 05:00:13;;;;;;;24.30;15.93;;;;;;;2.90;100.00;100723.70;1630376;88;20944;-71
2021/10/30 05:02:42;;;;;;;29.30;15.98;;;;;;;2.90;100.00;100723.70;1630274;87;22217;-70
2021/10/30 05:05:18;;;;;;;39.75;19.17;;;;;;;2.94;100.00;100725.42;1608455;87;21554;-72
2021/10/30 05:07:47;;;;;;;33.55;18.73;;;;;;;2.97;100.00;100727.66;1630040;87;20876;-72
2021/10/30 05:10:27;;;;;;;30.92;17.87;;;;;;;3.00;100.00;100724.47;1623064;88;21486;-72
2021/10/30 05:12:56;;;;;;;26.65;16.10;;;;;;;3.02;100.00;100730.48;1630360;88;20963;-72
2021/10/30 05:15:29;;;;;;;28.95;16.85;;;;;;;3.04;100.00;100727.00;1630009;88;21444;-72
2021/10/30 05:17:58;;;;;;;36.23;18.35;;;;;;;3.07;100.00;100733.31;1630125;87;21026;-72
2021/10/30 05:20:27;;;;;;;35.55;17.92;;;;;;;3.09;100.00;100735.25;1630257;88;21478;-72
2021/10/30 05:22:56;;;;;;;32.58;17.50;;;;;;;3.13;100.00;100735.61;1630377;88;20920;-73
2021/10/30 05:25:26;;;;;;;36.38;18.90;;;;;;;3.15;100.00;100746.52;1630053;87;21003;-71
2021/10/30 05:27:54;;;;;;;32.73;18.17;;;;;;;3.18;100.00;100746.05;1630236;87;21074;-72
2021/10/30 05:30:23;;;;;;;31.23;17.75;;;;;;;3.21;100.00;100748.28;1630383;87;21494;-70
2021/10/30 05:32:54;;;;;;;33.90;18.52;;;;;;;3.27;100.00;100745.14;1630512;88;20988;-72
2021/10/30 05:35:38;;;;;;;29.27;18.57;;;;;;;3.30;100.00;100750.09;1600103;87;20908;-72
2021/10/30 05:38:12;;;;;;;37.93;19.67;;;;;;;3.36;100.00;100751.03;1629798;88;21014;-71
2021/10/30 05:40:43;;;;;;;37.48;21.55;;;;;;;3.40;100.00;100754.92;1630413;86;21494;-72
2021/10/30 05:43:14;;;;;;;36.48;20.25;;;;;;;3.45;100.00;100755.03;1630202;86;20912;-71
2021/10/30 05:45:41;;;;;;;39.88;23.10;;;;;;;3.51;100.00;100759.47;1627236;86;21000;-72
2021/10/30 05:48:16;;;;;;;43.83;23.85;;;;;;;3.57;100.00;100761.23;1627465;86;21018;-73
2021/10/30 05:50:46;;;;;;;69.53;38.58;;;;;;;3.61;100.00;100758.33;1630544;87;21385;-72
2021/10/30 05:53:19;;;;;;;71.85;37.40;;;;;;;3.61;100.00;100758.33;1630249;88;21137;-72
2021/10/30 05:55:48;;;;;;;;;;;;;;;3.62;100.00;100762.16;1632278;88;21005;-72
2021/10/30 05:58:17;;;;;;;118.82;60.60;;;;;;;3.65;100.00;100760.86;1629800;86;20424;-73
2021/10/30 06:00:47;;;;;;;95.97;50.20;;;;;;;3.68;100.00;100771.23;1629790;86;21134;-73
2021/10/30 06:03:18;;;;;;;77.03;42.35;;;;;;;3.72;100.00;100772.41;1594324;88;20920;-74
2021/10/30 06:05:51;;;;;;;90.75;44.33;;;;;;;3.79;100.00;100770.91;1603333;87;20999;-74
2021/10/30 06:08:20;;;;;;;75.83;43.92;;;;;;;3.85;100.00;100765.87;1623467;88;20963;-75
2021/10/30 06:10:51;;;;;;;91.65;51.33;;;;;;;3.89;100.00;100766.51;1608265;87;21040;-79
2021/10/30 06:13:21;;;;;;;106.32;53.87;;;;;;;3.94;100.00;100770.68;1629594;86;21027;-74
2021/10/30 06:15:53;;;;;;;122.25;62.30;;;;;;;3.98;100.00;100772.38;1629506;87;21009;-75
2021/10/30 06:18:25;;;;;;;105.37;46.35;;;;;;;4.02;100.00;100771.36;1630218;88;21850;-75
2021/10/30 06:20:53;;;;;;;79.90;41.15;;;;;;;4.07;100.00;100776.86;1630364;88;20959;-74
2021/10/30 06:23:24;;;;;;;79.35;44.13;;;;;;;4.09;100.00;100785.06;1629710;86;20943;-77
2021/10/30 06:25:58;;;;;;;101.22;53.20;;;;;;;4.11;100.00;100778.85;1628751;88;20980;-74
2021/10/30 06:28:24;;;;;;;88.80;49.48;;;;;;;4.12;100.00;100777.78;1630274;87;21090;-80
2021/10/30 06:30:57;;;;;;;103.35;56.20;;;;;;;4.19;100.00;100775.75;1630432;86;21143;-73
2021/10/30 06:33:31;;;;;;;115.47;60.75;;;;;;;4.21;100.00;100778.22;1608183;87;21578;-75
2021/10/30 06:36:06;;;;;;;75.05;44.20;;;;;;;4.23;100.00;100776.91;1608647;88;20899;-76
2021/10/30 06:38:36;;;;;;;113.12;61.88;;;;;;;4.22;100.00;100776.62;1630562;87;21454;-78
2021/10/30 06:41:06;;;;;;;76.82;44.40;;;;;;;4.21;100.00;100776.33;1630272;86;20958;-76
2021/10/30 06:43:36;;;;;;;101.78;47.70;;;;;;;4.23;100.00;100783.70;1608137;88;21482;-74
2021/10/30 06:46:10;;;;;;;102.47;49.55;;;;;;;4.27;100.00;100788.12;1627810;86;20967;-74
2021/10/30 06:48:43;;;;;;;78.65;43.28;;;;;;;4.36;100.00;100778.50;1618535;86;21078;-74
2021/10/30 06:51:20;;;;;;;81.60;44.65;;;;;;;4.36;100.00;100778.50;1628918;86;21538;-73
2021/10/30 06:53:49;;;;;;;108.67;57.62;;;;;;;4.41;100.00;100776.41;1630152;88;21018;-78
2021/10/30 06:56:18;;;;;;;108.00;47.78;;;;;;;4.46;100.00;100777.32;1625950;87;21243;-78
2021/10/30 06:58:45;;;;;;;64.50;32.00;;;;;;;4.52;100.00;100779.59;1626491;86;20952;-81
2021/10/30 07:01:14;;;;;;;81.78;43.25;;;;;;;4.52;100.00;100779.59;1608530;88;21026;-82
2021/10/30 07:03:45;;;;;;;75.85;38.28;;;;;;;4.56;100.00;100778.86;1630553;88;21466;-85
2021/10/30 07:06:17;;;;;;;87.47;48.45;;;;;;;4.61;100.00;100787.10;1622683;88;21430;-80
2021/10/30 07:08:46;;;;;;;78.40;42.85;;;;;;;4.65;100.00;100788.77;1629746;88;21430;-86
2021/10/30 07:11:17;;;;;;;55.83;30.72;;;;;;;4.72;100.00;100794.05;1630340;87;20952;-73
2021/10/30 07:13:46;;;;;;;54.33;33.00;;;;;;;4.74;100.00;100796.81;1630405;87;21066;-78
2021/10/30 07:16:20;;;;;;;73.10;38.58;;;;;;;4.69;100.00;100785.84;1630307;88;20920;-74
2021/10/30 07:18:47;;;;;;;63.38;33.25;;;;;;;4.71;100.00;100792.39;1630633;88;20959;-74
2021/10/30 07:21:18;;;;;;;72.70;37.73;;;;;;;4.73;100.00;100791.61;1630304;88;21573;-72
2021/10/30 07:24:00;;;;;;;46.50;25.92;;;;;;;4.73;100.00;100791.61;1601003;88;28515;-74
2021/10/30 07:26:18;;;;;;;59.38;33.50;;;;;;;4.75;100.00;100795.73;1620699;88;20963;-72
2021/10/30 07:28:51;;;;;;;65.45;38.58;;;;;;;4.76;100.00;100794.66;1613136;88;21145;-74
2021/10/30 07:31:20;;;;;;;61.73;33.40;;;;;;;4.79;100.00;100790.63;1631313;87;21521;-71
2021/10/30 07:33:53;;;;;;;60.17;31.77;;;;;;;4.91;100.00;100803.61;1646295;86;20987;-77
2021/10/30 07:36:24;;;;;;;64.32;32.83;;;;;;;4.91;100.00;100803.61;1646080;87;20921;-74
2021/10/30 07:38:58;;;;;;;70.83;39.35;;;;;;;4.96;100.00;100800.44;1648157;85;20996;-73
2021/10/30 07:41:27;;;;;;;84.90;52.55;;;;;;;5.00;100.00;100796.69;1646735;85;20985;-76
2021/10/30 07:44:00;;;;;;;67.82;37.38;;;;;;;5.06;100.00;100797.59;1647035;87;21013;-73
2021/10/30 07:46:27;;;;;;;58.40;31.65;;;;;;;5.06;100.00;100797.59;1646603;87;21848;-74
2021/10/30 07:48:58;;;;;;;68.60;37.65;;;;;;;5.04;100.00;100795.12;1646976;85;21100;-78
2021/10/30 07:51:28;;;;;;;60.70;35.15;;;;;;;5.11;100.00;100807.20;1626360;87;21001;-76
2021/10/30 07:54:04;;;;;;;62.33;33.13;;;;;;;5.10;100.00;100802.29;1647117;87;21028;-80
2021/10/30 07:56:34;;;;;;;50.58;24.92;;;;;;;5.13;100.00;100806.41;1646972;87;20957;-74
2021/10/30 07:59:00;;;;;;;57.60;30.68;;;;;;;5.15;100.00;100801.00;1647331;87;21544;-74
2021/10/30 08:01:32;;;;;;;58.92;30.08;;;;;;;5.18;100.00;100797.78;1646391;87;21522;-80
2021/10/30 08:04:04;;;;;;;59.25;26.87;;;;;;;5.25;100.00;100793.50;1636140;87;21062;-75
2021/10/30 08:06:31;;;;;;;56.83;28.32;;;;;;;5.25;100.00;100793.50;1645515;87;21011;-74
2021/10/30 08:08:59;;;;;;;54.85;27.55;;;;;;;5.30;100.00;100791.67;1626424;87;20936;-78
2021/10/30 08:11:29;;;;;;;73.22;37.73;;;;;;;5.39;100.00;100785.26;1644349;85;21492;-81
2021/10/30 08:13:57;;;;;;;85.12;48.73;;;;;;;5.43;100.00;100793.21;1643921;86;20875;-75
2021/10/30 08:16:27;;;;;;;73.10;40.15;;;;;;;5.45;100.00;100788.88;1643375;87;21504;-73
2021/10/30 08:18:57;;;;;;;52.43;27.52;;;;;;;5.49;100.00;100781.31;1623214;87;21413;-76
2021/10/30 08:21:35;;;;;;;63.58;35.13;;;;;;;5.48;100.00;100791.92;1643773;87;21008;-79
2021/10/30 08:24:04;;;;;;;68.75;36.25;;;;;;;5.39;100.00;100798.88;1643923;87;21055;-77
2021/10/30 08:26:37;;;;;;;76.28;45.35;;;;;;;5.32;100.00;100795.50;1643667;87;21083;-77
2021/10/30 08:29:08;;;;;;;59.27;32.35;;;;;;;5.31;100.00;100793.31;1623276;86;22300;-75
2021/10/30 08:31:40;;;;;;;64.20;34.73;;;;;;;5.36;100.00;100795.29;1636293;86;21004;-76
2021/10/30 08:34:08;;;;;;;64.55;37.38;;;;;;;5.37;100.00;100795.58;1637156;86;21103;-76
2021/10/30 08:36:37;;;;;;;52.55;29.65;;;;;;;5.38;100.00;100799.13;1643949;86;21828;-78
2021/10/30 08:39:03;;;;;;;48.95;27.27;;;;;;;5.48;100.00;100797.91;1643906;86;21626;-77
2021/10/30 08:41:35;;;;;;;46.23;25.70;;;;;;;5.48;100.00;100797.91;1652549;86;21506;-74
2021/10/30 08:44:05;;;;;;;51.92;26.87;;;;;;;5.51;100.00;100801.48;1652472;86;21475;-75
2021/10/30 08:46:37;;;;;;;54.13;28.85;;;;;;;5.49;100.00;100795.47;1643381;87;20881;-76
2021/10/30 08:49:10;;;;;;;64.97;30.65;;;;;;;5.49;100.00;100793.56;1642872;86;21444;-76
2021/10/30 08:51:40;;;;;;;63.33;31.17;;;;;;;5.52;100.00;100799.05;1643285;87;21035;-78
2021/10/30 08:54:10;;;;;;;45.67;25.27;;;;;;;5.58;100.00;100799.41;1643411;87;21032;-78
2021/10/30 08:56:39;;;;;;;45.60;24.63;;;;;;;5.68;100.00;100794.62;1652471;86;20964;-78
2021/10/30 08:59:09;;;;;;;45.60;23.27;;;;;;;5.72;100.00;100797.14;1644029;86;20985;-72
2021/10/30 09:01:47;;;;;;;48.38;24.37;;;;;;;5.72;100.00;100800.69;1639824;87;21157;-75
2021/10/30 09:04:16;;;;;;;47.83;28.15;;;;;;;5.72;100.00;100797.95;1646424;85;21439;-77
2021/10/30 09:06:46;;;;;;;54.73;32.58;;;;;;;5.72;100.00;100798.50;1630715;86;20964;-74
2021/10/30 09:09:18;;;;;;;48.55;26.57;;;;;;;5.74;100.00;100801.25;1609209;86;20998;-73
2021/10/30 09:11:58;;;;;;;85.03;49.20;;;;;;;5.74;100.00;100795.80;1630769;87;20974;-76
2021/10/30 09:14:28;;;;;;;69.12;41.80;;;;;;;5.77;100.00;100800.75;1630622;88;21114;-76
2021/10/30 09:17:19;;;;;;;70.78;41.55;;;;;;;5.82;100.00;100804.05;1630582;86;20914;-75
2021/10/30 09:19:52;;;;;;;62.38;39.38;;;;;;;5.85;100.00;100808.98;1630682;86;21070;-75
2021/10/30 09:22:20;;;;;;;44.65;27.95;;;;;;;5.87;100.00;100811.75;1629804;88;20970;-73
2021/10/30 09:25:08;;;;;;;56.28;34.60;;;;;;;5.93;100.00;100806.67;1630719;88;21021;-74
2021/10/30 09:28:01;;;;;;;61.40;38.67;;;;;;;5.93;100.00;100802.59;1608428;87;21839;-76
2021/10/30 09:30:36;;;;;;;44.00;26.93;;;;;;;5.86;100.00;100810.09;1604911;87;21023;-72
2021/10/30 09:33:06;;;;;;;47.00;29.07;;;;;;;5.86;100.00;100808.73;1608250;87;21037;-74
2021/10/30 09:35:43;;;;;;;35.10;22.58;;;;;;;5.88;100.00;100806.58;1616202;88;20951;-73
2021/10/30 09:38:33;;;;;;;50.38;29.05;;;;;;;5.92;100.00;100803.66;1591792;88;20915;-73
2021/10/30 09:41:01;;;;;;;54.18;31.15;;;;;;;6.02;100.00;100800.77;1593368;89;21184;-71
2021/10/30 09:43:32;;;;;;;36.35;20.90;;;;;;;6.06;100.00;100795.09;1615643;86;20916;-71
2021/10/30 09:46:10;;;;;;;40.17;21.68;;;;;;;6.09;100.00;100793.22;1629023;88;21502;-72
2021/10/30 09:48:44;;;;;;;34.73;20.17;;;;;;;6.06;100.00;100794.56;1630654;86;20949;-72
2021/10/30 09:51:36;;;;;;;40.88;24.98;;;;;;;6.06;100.00;100795.92;1630607;87;21462;-73
2021/10/30 09:54:08;;;;;;;42.23;24.32;;;;;;;6.08;100.00;100792.40;1639212;87;39387;-73
2021/10/30 09:56:46;;;;;;;60.17;38.50;;;;;;;6.07;100.00;100789.39;1630486;87;20872;-72
2021/10/30 09:59:21;;;;;;;42.98;27.20;;;;;;;6.11;100.00;100786.98;1617485;88;21458;-72
2021/10/30 10:01:54;;;;;;;31.17;19.05;;;;;;;6.18;100.00;100784.33;1630921;87;21600;-74
2021/10/30 10:04:22;;;;;;;32.63;19.87;;;;;;;6.25;100.00;100782.77;1625147;86;21506;-78
2021/10/30 10:06:50;;;;;;;32.73;19.80;;;;;;;6.26;100.00;100783.05;1626703;86;21532;-81
2021/10/30 10:09:19;;;;;;;29.63;18.62;;;;;;;6.25;100.00;100784.12;1625531;87;21565;-84
2021/10/30 10:11:54;;;;;;;37.88;20.10;;;;;;;6.27;100.00;100780.06;1625219;87;20912;-80
2021/10/30 10:14:22;;;;;;;30.77;18.05;;;;;;;6.28;100.00;100783.62;1625114;88;20964;-78
2021/10/30 10:16:59;;;;;;;34.43;19.98;;;;;;;6.27;100.00;100781.97;1624193;86;20995;-87
2021/10/30 10:19:32;;;;;;;31.07;18.25;;;;;;;6.27;100.00;100786.06;1635512;86;20992;-70
2021/10/30 10:22:07;;;;;;;35.08;20.10;;;;;;;6.30;100.00;100778.73;1629258;87;20966;-79
2021/10/30 10:24:41;;;;;;;36.10;21.73;;;;;;;6.34;100.00;100785.31;1625539;87;21494;-77
2021/10/30 10:27:11;;;;;;;36.95;21.75;;;;;;;6.36;100.00;100785.03;1627732;88;20979;-73
2021/10/30 10:29:41;;;;;;;34.05;18.87;;;;;;;6.44;100.00;100777.74;1615994;88;20900;-75
2021/10/30 10:32:18;;;;;;;35.20;20.65;;;;;;;6.43;100.00;100769.28;1630812;87;21159;-75
2021/10/30 10:34:47;;;;;;;37.65;21.45;;;;;;;6.42;100.00;100774.45;1629779;86;20968;-75
2021/10/30 10:37:19;;;;;;;34.73;20.40;;;;;;;6.45;100.00;100772.03;1630068;87;21441;-76
2021/10/30 10:39:57;;;;;;;34.38;20.68;;;;;;;6.48;100.00;100769.33;1630341;86;21442;-78
2021/10/30 10:42:43;;;;;;;33.10;18.62;;;;;;;6.49;100.00;100777.25;1629404;86;21007;-74
2021/10/30 10:45:15;;;;;;;34.30;19.75;;;;;;;6.53;100.00;100765.28;1627548;87;21006;-74
2021/10/30 10:47:50;;;;;;;35.50;19.67;;;;;;;6.54;100.00;100766.92;1632344;86;21006;-79
2021/10/30 10:50:33;;;;;;;31.25;19.07;;;;;;;6.57;100.00;100771.33;1622744;86;21087;-82
2021/10/30 10:53:16;;;;;;;34.03;20.82;;;;;;;6.60;100.00;100772.71;1623707;86;20955;-83
2021/10/30 10:55:53;;;;;;;34.53;20.97;;;;;;;6.62;100.00;100769.18;1629900;86;20920;-74
2021/10/30 10:58:22;;;;;;;34.20;19.62;;;;;;;6.68;100.00;100767.32;1630272;86;21516;-83
2021/10/30 11:01:07;;;;;;;37.28;20.97;;;;;;;6.73;100.00;100766.00;1629949;86;21373;-79
2021/10/30 11:03:43;;;;;;;37.67;24.10;;;;;;;6.77;100.00;100761.67;1630401;87;21007;-78
2021/10/30 11:06:12;;;;;;;35.55;21.82;;;;;;;6.76;100.00;100760.02;1629776;87;21004;-76
2021/10/30 11:08:42;;;;;;;36.55;20.40;;;;;;;6.78;100.00;100758.67;1629594;87;20967;-73
2021/10/30 11:11:27;;;;;;;35.13;21.07;;;;;;;6.83;100.00;100759.26;1629573;85;21570;-73
2021/10/30 11:14:01;;;;;;;32.67;19.92;;;;;;;6.85;100.00;100751.09;1629644;87;21460;-73
2021/10/30 11:16:44;;;;;;;37.90;21.00;;;;;;;6.85;100.00;100757.09;1631078;86;21028;-70
2021/10/30 11:19:39;;;;;;;34.60;21.57;;;;;;;6.81;100.00;100751.33;1639522;86;21452;-71
2021/10/30 11:22:22;;;;;;;34.85;20.43;;;;;;;6.82;100.00;100760.34;1619711;87;20961;-71
2021/10/30 11:24:54;;;;;;;30.17;19.57;;;;;;;6.83;100.00;100758.72;1607879;88;21802;-72
2021/10/30 11:27:27;;;;;;;28.62;18.02;;;;;;;6.88;100.00;100755.20;1631640;86;20968;-72
2021/10/30 11:30:04;;;;;;;29.90;17.90;;;;;;;6.92;100.00;100748.95;1637882;86;21597;-72
2021/10/30 11:32:36;;;;;;;31.35;19.37;;;;;;;6.93;100.00;100747.05;1618022;87;21027;-73